createdAt,value
2023-02-09T00:01:58.412Z,2.80
2023-02-09T00:07:01.865Z,3.50
2023-02-09T00:12:22.452Z,3.23
2023-02-09T00:17:24.712Z,2.63
2023-02-09T00:22:29.723Z,2.93
2023-02-09T00:27:35.692Z,3.23
2023-02-09T00:32:38.919Z,2.70
2023-02-09T00:37:42.344Z,2.07
2023-02-09T00:42:44.554Z,2.60
2023-02-09T00:47:46.699Z,3.70
2023-02-09T00:52:49.063Z,2.70
2023-02-09T00:57:51.178Z,2.97
2023-02-09T01:02:53.326Z,3.07
2023-02-09T01:07:55.440Z,2.37
2023-02-09T01:13:03.811Z,2.93
2023-02-09T01:18:07.665Z,2.93
2023-02-09T01:23:10.218Z,2.70
2023-02-09T01:28:12.389Z,2.53
2023-02-09T01:33:14.595Z,2.70
2023-02-09T01:38:16.674Z,3.00
2023-02-09T01:43:18.951Z,2.80
2023-02-09T01:48:27.302Z,2.27
2023-02-09T01:53:29.528Z,2.93
2023-02-09T01:58:32.207Z,2.90
2023-02-09T02:03:34.530Z,2.67
2023-02-09T02:08:58.928Z,2.53
2023-02-09T02:14:01.126Z,2.70
2023-02-09T02:19:50.710Z,2.60
2023-02-09T02:25:23.888Z,2.85
2023-02-09T02:30:48.037Z,2.27
2023-02-09T02:35:55.530Z,3.13
2023-02-09T02:41:10.218Z,2.50
2023-02-09T02:46:31.156Z,3.17
2023-02-09T02:51:39.958Z,3.20
2023-02-09T02:57:18.607Z,2.40
2023-02-09T03:02:24.022Z,2.97
2023-02-09T03:07:26.461Z,3.07
2023-02-09T03:12:52.542Z,3.20
2023-02-09T03:18:11.108Z,3.03
2023-02-09T03:23:19.505Z,2.33
2023-02-09T03:28:31.447Z,3.17
2023-02-09T03:33:34.698Z,2.80
2023-02-09T03:38:36.926Z,3.37
2023-02-09T03:44:03.618Z,4.37
2023-02-09T03:49:05.824Z,2.73
2023-02-09T03:54:08.248Z,3.20
2023-02-09T03:59:10.718Z,3.50
2023-02-09T04:04:12.982Z,3.17
2023-02-09T04:09:15.293Z,3.40
2023-02-09T04:14:17.763Z,3.30
2023-02-09T04:19:19.906Z,3.53
2023-02-09T04:24:22.120Z,2.73
2023-02-09T04:29:24.321Z,4.07
2023-02-09T04:34:26.607Z,3.67
2023-02-09T04:39:28.980Z,3.80
2023-02-09T04:44:40.135Z,3.90
2023-02-09T04:49:42.887Z,4.23
2023-02-09T04:54:45.240Z,4.00
2023-02-09T04:59:47.404Z,3.67
2023-02-09T05:04:49.529Z,3.90
2023-02-09T05:09:51.652Z,3.93
2023-02-09T05:14:53.772Z,3.37
2023-02-09T05:19:55.948Z,3.67
2023-02-09T05:24:58.036Z,3.63
2023-02-09T05:30:00.272Z,3.53
2023-02-09T05:35:02.493Z,3.03
2023-02-09T05:40:06.327Z,4.77
2023-02-09T05:45:18.088Z,3.50
2023-02-09T05:50:20.272Z,3.73
2023-02-09T05:55:22.401Z,3.93
2023-02-09T06:00:25.360Z,3.97
2023-02-09T06:05:27.794Z,3.47
2023-02-09T06:10:29.872Z,4.17
2023-02-09T06:15:32.109Z,4.70
2023-02-09T06:20:34.213Z,4.23
2023-02-09T06:25:39.639Z,4.87
2023-02-09T06:30:41.816Z,4.60
2023-02-09T06:35:44.586Z,4.53
2023-02-09T06:40:47.737Z,4.83
2023-02-09T06:51:26.427Z,4.87
2023-02-09T06:56:28.614Z,5.97
2023-02-09T07:01:30.776Z,6.40
2023-02-09T07:06:33.127Z,6.87
2023-02-09T07:11:35.341Z,7.53
2023-02-09T07:16:37.578Z,8.17
2023-02-09T07:21:39.686Z,7.17
2023-02-09T07:26:41.950Z,7.97
2023-02-09T07:31:44.221Z,7.20
2023-02-09T07:36:47.817Z,7.37
2023-02-09T07:41:50.458Z,6.33
2023-02-09T07:46:52.730Z,6.50
2023-02-09T07:51:54.897Z,7.33
2023-02-09T07:56:57.120Z,6.83
2023-02-09T08:01:59.302Z,8.03
2023-02-09T08:07:01.501Z,6.20
2023-02-09T08:12:05.365Z,6.37
2023-02-09T08:17:28.226Z,6.67
2023-02-09T08:22:32.880Z,7.17
2023-02-09T08:27:36.542Z,7.07
2023-02-09T08:32:38.794Z,6.37
2023-02-09T08:37:40.903Z,7.77
2023-02-09T08:42:43.159Z,6.90
2023-02-09T08:47:45.359Z,6.83
2023-02-09T08:52:47.790Z,6.43
2023-02-09T08:57:49.997Z,6.67
2023-02-09T09:02:52.180Z,7.40
2023-02-09T09:07:54.399Z,5.27
2023-02-09T09:12:56.693Z,4.87
2023-02-09T09:17:58.817Z,5.00
2023-02-09T09:23:02.189Z,6.07
2023-02-09T09:28:04.376Z,5.67
2023-02-09T09:33:06.657Z,5.40
2023-02-09T09:38:08.943Z,5.33
2023-02-09T09:43:38.457Z,5.07
2023-02-09T09:48:44.422Z,5.93
2023-02-09T09:53:50.169Z,6.10
2023-02-09T09:58:52.376Z,5.53
2023-02-09T10:03:59.102Z,5.80
2023-02-09T10:09:10.334Z,5.53
2023-02-09T10:14:12.590Z,6.13
2023-02-09T10:19:20.864Z,6.73
2023-02-09T10:24:30.198Z,5.03
2023-02-09T10:29:32.343Z,5.07
2023-02-09T10:34:48.470Z,5.57
2023-02-09T10:40:06.976Z,4.67
2023-02-09T10:45:17.858Z,4.53
2023-02-09T10:50:20.253Z,4.93
2023-02-09T10:55:30.556Z,4.93
2023-02-09T11:00:37.530Z,4.40
2023-02-09T11:05:39.951Z,4.83
2023-02-09T11:11:29.097Z,3.90
2023-02-09T11:16:53.260Z,4.50
2023-02-09T11:22:10.903Z,4.80
2023-02-09T11:27:29.870Z,5.03
2023-02-09T11:32:45.395Z,5.23
2023-02-09T11:38:01.054Z,4.23
2023-02-09T11:43:25.538Z,4.77
2023-02-09T11:48:37.332Z,4.30
2023-02-09T11:53:48.096Z,4.80
2023-02-09T11:59:11.895Z,6.03
2023-02-09T12:04:18.656Z,4.23
2023-02-09T12:10:00.574Z,5.70
2023-02-09T12:15:08.904Z,4.87
2023-02-09T12:20:37.392Z,5.10
2023-02-09T12:26:01.867Z,4.90
2023-02-09T12:31:04.116Z,4.90
2023-02-09T12:36:12.606Z,3.77
2023-02-09T12:41:51.586Z,4.33
2023-02-09T12:46:56.220Z,3.43
2023-02-09T12:52:02.364Z,4.00
2023-02-09T12:57:17.066Z,4.00
2023-02-09T13:02:48.648Z,3.60
2023-02-09T13:08:07.484Z,3.57
2023-02-09T13:13:12.743Z,3.33
2023-02-09T13:18:14.826Z,3.43
2023-02-09T13:23:21.145Z,3.73
2023-02-09T13:28:23.359Z,3.87
2023-02-09T13:33:34.168Z,4.33
2023-02-09T13:38:40.997Z,4.20
2023-02-09T13:43:46.511Z,3.07
2023-02-09T13:48:48.636Z,4.07
2023-02-09T13:54:02.081Z,3.43
2023-02-09T13:59:07.155Z,3.47
2023-02-09T14:04:29.987Z,3.90
2023-02-09T14:09:41.852Z,3.47
2023-02-09T14:15:32.403Z,3.60
2023-02-09T14:20:35.164Z,3.87
2023-02-09T14:25:37.539Z,4.17
2023-02-09T14:30:50.150Z,4.10
2023-02-09T14:35:59.343Z,3.40
2023-02-09T14:41:27.416Z,5.18
2023-02-09T14:46:50.550Z,3.87
2023-02-09T14:52:05.724Z,3.80
2023-02-09T14:57:11.103Z,4.77
2023-02-09T15:02:20.592Z,4.00
2023-02-09T15:07:30.364Z,3.63
2023-02-09T15:12:33.124Z,3.40
2023-02-09T15:17:35.461Z,3.73
2023-02-09T15:22:37.826Z,3.67
2023-02-09T15:27:51.928Z,4.10
2023-02-09T15:32:54.616Z,3.67
2023-02-09T15:37:59.882Z,3.77
2023-02-09T15:43:24.122Z,4.07
2023-02-09T15:48:27.597Z,3.63
2023-02-09T15:53:31.448Z,3.63
2023-02-09T15:58:39.651Z,4.20
2023-02-09T16:03:42.610Z,4.10
2023-02-09T16:08:50.265Z,4.17
2023-02-09T16:13:54.559Z,4.10
2023-02-09T16:18:56.763Z,2.97
2023-02-09T16:24:01.571Z,3.63
2023-02-09T16:29:04.384Z,3.93
2023-02-09T16:34:07.810Z,3.53
2023-02-09T16:39:18.544Z,3.80
2023-02-09T16:44:23.778Z,3.50
2023-02-09T16:49:33.235Z,3.50
2023-02-09T16:54:41.456Z,3.22
2023-02-09T16:59:44.052Z,3.20
2023-02-09T17:05:33.324Z,4.20
2023-02-09T17:10:36.359Z,3.30
2023-02-09T17:15:47.444Z,2.67
2023-02-09T17:20:58.121Z,2.60
2023-02-09T17:26:00.486Z,2.73
2023-02-09T17:31:04.524Z,2.43
2023-02-09T17:36:27.625Z,3.70
2023-02-09T17:41:39.404Z,3.20
2023-02-09T17:46:42.860Z,3.80
2023-02-09T17:51:48.627Z,4.67
2023-02-09T17:56:51.670Z,3.63
2023-02-09T18:01:56.567Z,3.87
2023-02-09T18:06:58.774Z,3.20
2023-02-09T18:12:20.456Z,3.73
2023-02-09T18:17:22.659Z,4.37
2023-02-09T18:22:27.857Z,2.93
2023-02-09T18:27:30.065Z,3.73
2023-02-09T18:32:32.210Z,3.93
2023-02-09T18:37:40.522Z,3.13
2023-02-09T18:42:43.479Z,3.43
2023-02-09T18:47:46.808Z,2.90
2023-02-09T18:52:52.562Z,3.00
2023-02-09T18:57:58.026Z,2.80
2023-02-09T19:03:00.375Z,2.77
2023-02-09T19:08:02.766Z,2.30
2023-02-09T19:13:05.580Z,2.30
2023-02-09T19:18:07.792Z,1.93
2023-02-09T19:23:10.031Z,2.27
2023-02-09T19:28:12.695Z,1.60
2023-02-09T19:33:15.155Z,1.63
2023-02-09T19:38:17.609Z,1.83
2023-02-09T19:43:21.120Z,2.03
2023-02-09T19:48:24.016Z,1.80
2023-02-09T19:53:26.803Z,2.00
2023-02-09T19:58:29.220Z,1.40
2023-02-09T20:03:31.746Z,2.07
2023-02-09T20:08:34.014Z,1.77
2023-02-09T20:13:36.805Z,1.57
2023-02-09T20:18:40.436Z,1.57
2023-02-09T20:23:44.998Z,1.60
2023-02-09T20:28:51.158Z,1.90
2023-02-09T20:33:53.843Z,1.57
2023-02-09T20:38:56.152Z,1.90
2023-02-09T20:44:16.783Z,1.43
2023-02-09T20:49:19.329Z,1.87
2023-02-09T20:54:21.743Z,1.80
2023-02-09T20:59:24.791Z,1.60
2023-02-09T21:04:30.448Z,2.17
2023-02-09T21:09:32.673Z,1.73
2023-02-09T21:14:43.120Z,2.23
2023-02-09T21:19:46.771Z,2.37
2023-02-09T21:24:48.967Z,2.40
2023-02-09T21:29:51.250Z,2.57
2023-02-09T21:34:53.503Z,2.37
2023-02-09T21:39:56.194Z,2.60
2023-02-09T21:45:00.400Z,2.33
2023-02-09T21:50:04.734Z,2.13
2023-02-09T21:55:08.544Z,2.87
2023-02-09T22:00:14.963Z,3.60
2023-02-09T22:05:18.578Z,3.17
2023-02-09T22:10:21.258Z,2.37
2023-02-09T22:15:24.093Z,3.37
2023-02-09T22:20:36.067Z,3.00
2023-02-09T22:25:38.546Z,2.20
2023-02-09T22:30:40.828Z,3.73
2023-02-09T22:35:43.082Z,2.73
2023-02-09T22:40:45.533Z,3.20
2023-02-09T22:45:55.209Z,2.37
2023-02-09T22:50:57.381Z,2.77
2023-02-09T22:56:03.607Z,2.53
2023-02-09T23:01:06.704Z,2.73
2023-02-09T23:06:12.636Z,3.30
2023-02-09T23:11:17.466Z,3.23
2023-02-09T23:16:22.694Z,2.77
2023-02-09T23:21:28.674Z,2.90
2023-02-09T23:26:30.886Z,2.90
2023-02-09T23:31:33.436Z,2.80
2023-02-09T23:36:35.906Z,3.13
2023-02-09T23:41:38.106Z,2.83
2023-02-09T23:46:40.314Z,2.87
2023-02-09T23:51:44.465Z,3.30
2023-02-09T23:56:46.775Z,2.53
